sensor_id;sensor_type;location;lat;lon;timestamp;P1;durP1;ratioP1;P2;durP2;ratioP2
44120;SDS011;29783;52.504;13.478;2023-06-14T00:03:29;5.65;;;1.92;;
44120;SDS011;29783;52.504;13.478;2023-06-14T00:05:56;2.65;;;1.90;;
44120;SDS011;29783;52.504;13.478;2023-06-14T00:08:22;3.90;;;1.70;;
44120;SDS011;29783;52.504;13.478;2023-06-14T00:10:50;2.22;;;1.88;;
44120;SDS011;29783;52.504;13.478;2023-06-14T00:13:16;2.38;;;1.73;;
44120;SDS011;29783;52.504;13.478;2023-06-14T00:15:42;3.55;;;2.05;;
44120;SDS011;29783;52.504;13.478;2023-06-14T00:18:09;5.82;;;1.90;;
44120;SDS011;29783;52.504;13.478;2023-06-14T00:20:37;3.13;;;1.80;;
44120;SDS011;29783;52.504;13.478;2023-06-14T00:23:04;4.30;;;1.80;;
44120;SDS011;29783;52.504;13.478;2023-06-14T00:25:30;5.68;;;2.10;;
44120;SDS011;29783;52.504;13.478;2023-06-14T00:27:57;6.07;;;2.10;;
44120;SDS011;29783;52.504;13.478;2023-06-14T00:30:23;5.43;;;2.30;;
44120;SDS011;29783;52.504;13.478;2023-06-14T00:32:49;3.50;;;1.80;;
44120;SDS011;29783;52.504;13.478;2023-06-14T00:35:16;5.22;;;2.08;;
44120;SDS011;29783;52.504;13.478;2023-06-14T00:37:42;3.45;;;2.00;;
44120;SDS011;29783;52.504;13.478;2023-06-14T00:40:08;4.70;;;1.98;;
44120;SDS011;29783;52.504;13.478;2023-06-14T00:42:34;3.83;;;2.20;;
44120;SDS011;29783;52.504;13.478;2023-06-14T00:45:00;2.83;;;1.88;;
44120;SDS011;29783;52.504;13.478;2023-06-14T00:47:26;6.38;;;1.95;;
44120;SDS011;29783;52.504;13.478;2023-06-14T00:49:52;7.45;;;2.30;;
44120;SDS011;29783;52.504;13.478;2023-06-14T00:52:19;4.20;;;2.33;;
44120;SDS011;29783;52.504;13.478;2023-06-14T00:54:46;3.10;;;2.22;;
44120;SDS011;29783;52.504;13.478;2023-06-14T00:57:12;2.03;;;1.85;;
44120;SDS011;29783;52.504;13.478;2023-06-14T00:59:43;4.50;;;2.60;;
44120;SDS011;29783;52.504;13.478;2023-06-14T01:02:09;3.95;;;2.45;;
44120;SDS011;29783;52.504;13.478;2023-06-14T01:04:35;7.78;;;2.28;;
44120;SDS011;29783;52.504;13.478;2023-06-14T01:09:58;4.80;;;2.42;;
44120;SDS011;29783;52.504;13.478;2023-06-14T01:15:13;3.35;;;2.78;;
44120;SDS011;29783;52.504;13.478;2023-06-14T01:17:39;4.57;;;2.70;;
44120;SDS011;29783;52.504;13.478;2023-06-14T01:20:09;6.55;;;2.70;;
44120;SDS011;29783;52.504;13.478;2023-06-14T01:22:43;10.63;;;2.83;;
44120;SDS011;29783;52.504;13.478;2023-06-14T01:25:09;5.68;;;3.00;;
44120;SDS011;29783;52.504;13.478;2023-06-14T01:27:37;4.57;;;2.90;;
44120;SDS011;29783;52.504;13.478;2023-06-14T01:30:03;5.20;;;2.58;;
44120;SDS011;29783;52.504;13.478;2023-06-14T01:32:30;3.08;;;2.58;;
44120;SDS011;29783;52.504;13.478;2023-06-14T01:34:56;3.60;;;2.65;;
44120;SDS011;29783;52.504;13.478;2023-06-14T01:37:22;7.03;;;2.70;;
44120;SDS011;29783;52.504;13.478;2023-06-14T01:39:48;5.75;;;2.60;;
44120;SDS011;29783;52.504;13.478;2023-06-14T01:42:15;6.32;;;3.15;;
44120;SDS011;29783;52.504;13.478;2023-06-14T01:44:42;4.93;;;2.85;;
44120;SDS011;29783;52.504;13.478;2023-06-14T01:47:08;6.38;;;2.53;;
44120;SDS011;29783;52.504;13.478;2023-06-14T01:49:34;3.80;;;2.40;;
44120;SDS011;29783;52.504;13.478;2023-06-14T01:52:01;3.22;;;2.70;;
44120;SDS011;29783;52.504;13.478;2023-06-14T01:54:27;7.03;;;2.97;;
44120;SDS011;29783;52.504;13.478;2023-06-14T01:56:54;6.10;;;3.10;;
44120;SDS011;29783;52.504;13.478;2023-06-14T01:59:20;7.03;;;3.10;;
44120;SDS011;29783;52.504;13.478;2023-06-14T02:01:46;9.27;;;3.17;;
44120;SDS011;29783;52.504;13.478;2023-06-14T02:04:12;4.70;;;2.90;;
44120;SDS011;29783;52.504;13.478;2023-06-14T02:06:38;10.55;;;3.17;;
44120;SDS011;29783;52.504;13.478;2023-06-14T02:09:04;5.60;;;3.45;;
44120;SDS011;29783;52.504;13.478;2023-06-14T02:11:30;14.35;;;3.38;;
44120;SDS011;29783;52.504;13.478;2023-06-14T02:13:56;7.00;;;3.03;;
44120;SDS011;29783;52.504;13.478;2023-06-14T02:16:24;6.15;;;3.55;;
44120;SDS011;29783;52.504;13.478;2023-06-14T02:18:52;3.95;;;3.03;;
44120;SDS011;29783;52.504;13.478;2023-06-14T02:21:19;8.98;;;3.80;;
44120;SDS011;29783;52.504;13.478;2023-06-14T02:23:45;5.88;;;3.50;;
44120;SDS011;29783;52.504;13.478;2023-06-14T02:26:11;4.50;;;3.55;;
44120;SDS011;29783;52.504;13.478;2023-06-14T02:28:37;4.45;;;3.33;;
44120;SDS011;29783;52.504;13.478;2023-06-14T02:31:03;4.72;;;3.60;;
44120;SDS011;29783;52.504;13.478;2023-06-14T02:33:29;6.85;;;3.33;;
44120;SDS011;29783;52.504;13.478;2023-06-14T02:35:55;5.63;;;3.58;;
44120;SDS011;29783;52.504;13.478;2023-06-14T02:38:21;5.90;;;3.75;;
44120;SDS011;29783;52.504;13.478;2023-06-14T02:40:47;4.30;;;3.30;;
44120;SDS011;29783;52.504;13.478;2023-06-14T02:43:13;7.50;;;3.88;;
44120;SDS011;29783;52.504;13.478;2023-06-14T02:45:40;6.65;;;3.55;;
44120;SDS011;29783;52.504;13.478;2023-06-14T02:48:06;7.10;;;3.40;;
44120;SDS011;29783;52.504;13.478;2023-06-14T02:50:32;4.93;;;3.30;;
44120;SDS011;29783;52.504;13.478;2023-06-14T02:52:58;6.97;;;4.10;;
44120;SDS011;29783;52.504;13.478;2023-06-14T02:55:24;5.53;;;4.00;;
44120;SDS011;29783;52.504;13.478;2023-06-14T02:57:51;11.13;;;3.50;;
44120;SDS011;29783;52.504;13.478;2023-06-14T03:00:18;10.50;;;4.22;;
44120;SDS011;29783;52.504;13.478;2023-06-14T03:02:44;10.95;;;4.25;;
44120;SDS011;29783;52.504;13.478;2023-06-14T03:05:10;6.03;;;4.28;;
44120;SDS011;29783;52.504;13.478;2023-06-14T03:07:37;16.38;;;4.32;;
44120;SDS011;29783;52.504;13.478;2023-06-14T03:10:09;6.47;;;3.75;;
44120;SDS011;29783;52.504;13.478;2023-06-14T03:12:38;5.38;;;3.95;;
44120;SDS011;29783;52.504;13.478;2023-06-14T03:15:04;7.75;;;3.80;;
44120;SDS011;29783;52.504;13.478;2023-06-14T03:17:30;9.80;;;3.83;;
44120;SDS011;29783;52.504;13.478;2023-06-14T03:19:59;6.43;;;4.35;;
44120;SDS011;29783;52.504;13.478;2023-06-14T03:22:25;10.55;;;4.07;;
44120;SDS011;29783;52.504;13.478;2023-06-14T03:24:51;7.00;;;4.13;;
44120;SDS011;29783;52.504;13.478;2023-06-14T03:27:19;11.48;;;3.90;;
44120;SDS011;29783;52.504;13.478;2023-06-14T03:29:45;7.65;;;3.95;;
44120;SDS011;29783;52.504;13.478;2023-06-14T03:32:11;7.25;;;3.88;;
44120;SDS011;29783;52.504;13.478;2023-06-14T03:34:37;12.02;;;4.22;;
44120;SDS011;29783;52.504;13.478;2023-06-14T03:37:06;14.00;;;4.18;;
44120;SDS011;29783;52.504;13.478;2023-06-14T03:39:32;13.15;;;4.10;;
44120;SDS011;29783;52.504;13.478;2023-06-14T03:42:01;7.70;;;4.10;;
44120;SDS011;29783;52.504;13.478;2023-06-14T03:44:27;4.50;;;3.90;;
44120;SDS011;29783;52.504;13.478;2023-06-14T03:46:53;8.20;;;3.90;;
44120;SDS011;29783;52.504;13.478;2023-06-14T03:49:19;9.50;;;4.05;;
44120;SDS011;29783;52.504;13.478;2023-06-14T03:51:45;14.88;;;4.25;;
44120;SDS011;29783;52.504;13.478;2023-06-14T03:54:16;7.28;;;4.20;;
44120;SDS011;29783;52.504;13.478;2023-06-14T03:56:43;9.18;;;4.03;;
44120;SDS011;29783;52.504;13.478;2023-06-14T03:59:10;7.07;;;4.20;;
44120;SDS011;29783;52.504;13.478;2023-06-14T04:01:36;9.32;;;4.28;;
44120;SDS011;29783;52.504;13.478;2023-06-14T04:04:02;11.80;;;4.82;;
44120;SDS011;29783;52.504;13.478;2023-06-14T04:06:29;7.43;;;4.10;;
44120;SDS011;29783;52.504;13.478;2023-06-14T04:08:58;8.65;;;4.25;;
44120;SDS011;29783;52.504;13.478;2023-06-14T04:11:28;12.45;;;4.10;;
44120;SDS011;29783;52.504;13.478;2023-06-14T04:13:54;7.18;;;4.32;;
44120;SDS011;29783;52.504;13.478;2023-06-14T04:16:21;9.27;;;4.22;;
44120;SDS011;29783;52.504;13.478;2023-06-14T04:18:47;7.40;;;4.53;;
44120;SDS011;29783;52.504;13.478;2023-06-14T04:21:16;10.63;;;4.05;;
44120;SDS011;29783;52.504;13.478;2023-06-14T04:23:42;8.60;;;4.85;;
44120;SDS011;29783;52.504;13.478;2023-06-14T04:26:09;7.07;;;4.28;;
44120;SDS011;29783;52.504;13.478;2023-06-14T04:28:35;6.80;;;4.10;;
44120;SDS011;29783;52.504;13.478;2023-06-14T04:31:06;12.88;;;4.20;;
44120;SDS011;29783;52.504;13.478;2023-06-14T04:33:34;9.40;;;4.47;;
44120;SDS011;29783;52.504;13.478;2023-06-14T04:36:07;9.45;;;4.47;;
44120;SDS011;29783;52.504;13.478;2023-06-14T04:38:33;9.02;;;4.68;;
44120;SDS011;29783;52.504;13.478;2023-06-14T04:40:59;7.72;;;4.55;;
44120;SDS011;29783;52.504;13.478;2023-06-14T04:43:27;10.60;;;4.47;;
44120;SDS011;29783;52.504;13.478;2023-06-14T04:45:53;5.95;;;4.32;;
44120;SDS011;29783;52.504;13.478;2023-06-14T04:48:21;7.90;;;4.40;;
44120;SDS011;29783;52.504;13.478;2023-06-14T04:50:47;9.32;;;4.75;;
44120;SDS011;29783;52.504;13.478;2023-06-14T04:53:18;10.68;;;4.22;;
44120;SDS011;29783;52.504;13.478;2023-06-14T04:55:47;9.05;;;4.40;;
44120;SDS011;29783;52.504;13.478;2023-06-14T04:58:13;13.90;;;4.03;;
44120;SDS011;29783;52.504;13.478;2023-06-14T05:00:39;11.00;;;4.47;;
44120;SDS011;29783;52.504;13.478;2023-06-14T05:03:08;14.00;;;4.28;;
44120;SDS011;29783;52.504;13.478;2023-06-14T05:05:34;8.30;;;4.45;;
44120;SDS011;29783;52.504;13.478;2023-06-14T05:08:00;11.85;;;4.28;;
44120;SDS011;29783;52.504;13.478;2023-06-14T05:10:26;8.95;;;4.18;;
44120;SDS011;29783;52.504;13.478;2023-06-14T05:12:52;5.25;;;4.07;;
44120;SDS011;29783;52.504;13.478;2023-06-14T05:15:19;9.27;;;4.30;;
44120;SDS011;29783;52.504;13.478;2023-06-14T05:17:50;8.20;;;3.97;;
44120;SDS011;29783;52.504;13.478;2023-06-14T05:20:20;9.63;;;4.30;;
44120;SDS011;29783;52.504;13.478;2023-06-14T05:22:48;10.70;;;4.38;;
44120;SDS011;29783;52.504;13.478;2023-06-14T05:25:16;13.52;;;4.10;;
44120;SDS011;29783;52.504;13.478;2023-06-14T05:27:42;6.28;;;4.35;;
44120;SDS011;29783;52.504;13.478;2023-06-14T05:30:09;13.00;;;4.70;;
44120;SDS011;29783;52.504;13.478;2023-06-14T05:32:35;6.22;;;4.20;;
44120;SDS011;29783;52.504;13.478;2023-06-14T05:35:01;6.07;;;4.00;;
44120;SDS011;29783;52.504;13.478;2023-06-14T05:37:28;10.70;;;4.38;;
44120;SDS011;29783;52.504;13.478;2023-06-14T05:39:55;16.88;;;4.60;;
44120;SDS011;29783;52.504;13.478;2023-06-14T05:42:23;7.60;;;4.30;;
44120;SDS011;29783;52.504;13.478;2023-06-14T05:44:49;6.30;;;4.20;;
44120;SDS011;29783;52.504;13.478;2023-06-14T05:47:15;18.65;;;4.20;;
44120;SDS011;29783;52.504;13.478;2023-06-14T05:49:41;10.27;;;4.20;;
44120;SDS011;29783;52.504;13.478;2023-06-14T05:52:07;9.40;;;3.88;;
44120;SDS011;29783;52.504;13.478;2023-06-14T05:54:34;8.63;;;4.05;;
44120;SDS011;29783;52.504;13.478;2023-06-14T05:57:00;12.98;;;4.63;;
44120;SDS011;29783;52.504;13.478;2023-06-14T05:59:28;24.35;;;4.97;;
44120;SDS011;29783;52.504;13.478;2023-06-14T06:01:54;11.07;;;5.20;;
44120;SDS011;29783;52.504;13.478;2023-06-14T06:04:21;13.95;;;4.90;;
44120;SDS011;29783;52.504;13.478;2023-06-14T06:06:47;13.75;;;4.32;;
44120;SDS011;29783;52.504;13.478;2023-06-14T06:09:12;7.88;;;4.40;;
44120;SDS011;29783;52.504;13.478;2023-06-14T06:11:41;12.57;;;5.00;;
44120;SDS011;29783;52.504;13.478;2023-06-14T06:14:07;21.02;;;4.75;;
44120;SDS011;29783;52.504;13.478;2023-06-14T06:16:33;7.55;;;4.80;;
44120;SDS011;29783;52.504;13.478;2023-06-14T06:19:00;24.80;;;4.45;;
44120;SDS011;29783;52.504;13.478;2023-06-14T06:21:26;9.82;;;4.35;;
44120;SDS011;29783;52.504;13.478;2023-06-14T06:23:52;13.02;;;4.50;;
44120;SDS011;29783;52.504;13.478;2023-06-14T06:26:19;11.20;;;3.78;;
44120;SDS011;29783;52.504;13.478;2023-06-14T06:28:45;20.25;;;4.43;;
44120;SDS011;29783;52.504;13.478;2023-06-14T06:31:11;16.38;;;4.60;;
44120;SDS011;29783;52.504;13.478;2023-06-14T06:33:38;14.40;;;3.85;;
44120;SDS011;29783;52.504;13.478;2023-06-14T06:36:04;10.18;;;4.07;;
44120;SDS011;29783;52.504;13.478;2023-06-14T06:38:30;18.20;;;4.15;;
44120;SDS011;29783;52.504;13.478;2023-06-14T06:40:56;12.40;;;4.35;;
44120;SDS011;29783;52.504;13.478;2023-06-14T06:43:22;22.85;;;4.70;;
44120;SDS011;29783;52.504;13.478;2023-06-14T06:45:48;11.02;;;4.57;;
44120;SDS011;29783;52.504;13.478;2023-06-14T06:48:14;11.98;;;3.90;;
44120;SDS011;29783;52.504;13.478;2023-06-14T06:50:41;17.20;;;4.90;;
44120;SDS011;29783;52.504;13.478;2023-06-14T06:53:07;16.27;;;4.30;;
44120;SDS011;29783;52.504;13.478;2023-06-14T06:55:33;19.05;;;4.18;;
44120;SDS011;29783;52.504;13.478;2023-06-14T06:57:59;24.58;;;4.80;;
44120;SDS011;29783;52.504;13.478;2023-06-14T07:00:25;11.75;;;4.13;;
44120;SDS011;29783;52.504;13.478;2023-06-14T07:02:51;10.45;;;4.00;;
44120;SDS011;29783;52.504;13.478;2023-06-14T07:05:20;17.10;;;4.07;;
44120;SDS011;29783;52.504;13.478;2023-06-14T07:07:46;17.05;;;4.38;;
44120;SDS011;29783;52.504;13.478;2023-06-14T07:10:12;8.15;;;3.80;;
44120;SDS011;29783;52.504;13.478;2023-06-14T07:12:38;11.20;;;4.18;;
44120;SDS011;29783;52.504;13.478;2023-06-14T07:15:07;12.70;;;4.30;;
44120;SDS011;29783;52.504;13.478;2023-06-14T07:17:33;13.93;;;3.75;;
44120;SDS011;29783;52.504;13.478;2023-06-14T07:20:00;13.65;;;4.00;;
44120;SDS011;29783;52.504;13.478;2023-06-14T07:22:36;13.43;;;4.18;;
44120;SDS011;29783;52.504;13.478;2023-06-14T07:25:02;10.82;;;3.88;;
44120;SDS011;29783;52.504;13.478;2023-06-14T07:27:28;15.23;;;3.60;;
44120;SDS011;29783;52.504;13.478;2023-06-14T07:29:54;11.65;;;4.13;;
44120;SDS011;29783;52.504;13.478;2023-06-14T07:32:20;16.30;;;7.55;;
44120;SDS011;29783;52.504;13.478;2023-06-14T07:34:46;11.68;;;4.03;;
44120;SDS011;29783;52.504;13.478;2023-06-14T07:37:12;16.38;;;3.88;;
44120;SDS011;29783;52.504;13.478;2023-06-14T07:39:38;11.93;;;4.15;;
44120;SDS011;29783;52.504;13.478;2023-06-14T07:42:04;10.65;;;4.20;;
44120;SDS011;29783;52.504;13.478;2023-06-14T07:44:31;14.10;;;3.90;;
44120;SDS011;29783;52.504;13.478;2023-06-14T07:46:57;10.43;;;4.15;;
44120;SDS011;29783;52.504;13.478;2023-06-14T07:49:24;12.95;;;3.90;;
44120;SDS011;29783;52.504;13.478;2023-06-14T07:51:50;10.43;;;3.47;;
44120;SDS011;29783;52.504;13.478;2023-06-14T07:54:16;8.63;;;3.80;;
44120;SDS011;29783;52.504;13.478;2023-06-14T07:56:42;10.90;;;4.15;;
44120;SDS011;29783;52.504;13.478;2023-06-14T07:59:08;11.95;;;4.05;;
44120;SDS011;29783;52.504;13.478;2023-06-14T08:01:35;19.17;;;3.72;;
44120;SDS011;29783;52.504;13.478;2023-06-14T08:04:01;14.68;;;3.90;;
44120;SDS011;29783;52.504;13.478;2023-06-14T08:06:27;13.63;;;3.72;;
44120;SDS011;29783;52.504;13.478;2023-06-14T08:08:53;16.25;;;3.75;;
44120;SDS011;29783;52.504;13.478;2023-06-14T08:11:19;15.13;;;3.58;;
44120;SDS011;29783;52.504;13.478;2023-06-14T08:13:45;11.98;;;3.60;;
44120;SDS011;29783;52.504;13.478;2023-06-14T08:16:11;15.25;;;3.30;;
44120;SDS011;29783;52.504;13.478;2023-06-14T08:18:37;16.88;;;4.10;;
44120;SDS011;29783;52.504;13.478;2023-06-14T08:21:03;10.95;;;2.92;;
44120;SDS011;29783;52.504;13.478;2023-06-14T08:23:29;10.40;;;3.20;;
44120;SDS011;29783;52.504;13.478;2023-06-14T08:25:55;9.43;;;3.13;;
44120;SDS011;29783;52.504;13.478;2023-06-14T08:28:23;15.15;;;3.13;;
44120;SDS011;29783;52.504;13.478;2023-06-14T08:30:49;16.33;;;3.17;;
44120;SDS011;29783;52.504;13.478;2023-06-14T08:33:16;8.70;;;3.28;;
44120;SDS011;29783;52.504;13.478;2023-06-14T08:35:42;12.43;;;2.80;;
44120;SDS011;29783;52.504;13.478;2023-06-14T08:38:08;21.85;;;2.63;;
44120;SDS011;29783;52.504;13.478;2023-06-14T08:40:36;13.52;;;2.80;;
44120;SDS011;29783;52.504;13.478;2023-06-14T08:43:06;10.05;;;2.63;;
44120;SDS011;29783;52.504;13.478;2023-06-14T08:45:32;9.15;;;2.42;;
44120;SDS011;29783;52.504;13.478;2023-06-14T08:47:58;5.55;;;2.42;;
44120;SDS011;29783;52.504;13.478;2023-06-14T08:50:25;9.02;;;2.47;;
44120;SDS011;29783;52.504;13.478;2023-06-14T08:52:53;12.82;;;2.63;;
44120;SDS011;29783;52.504;13.478;2023-06-14T08:55:21;14.95;;;2.90;;
44120;SDS011;29783;52.504;13.478;2023-06-14T08:57:51;7.55;;;3.08;;
44120;SDS011;29783;52.504;13.478;2023-06-14T09:00:17;5.75;;;2.97;;
44120;SDS011;29783;52.504;13.478;2023-06-14T09:02:45;8.55;;;2.35;;
44120;SDS011;29783;52.504;13.478;2023-06-14T09:05:12;14.27;;;2.90;;
44120;SDS011;29783;52.504;13.478;2023-06-14T09:07:43;3.72;;;2.13;;
44120;SDS011;29783;52.504;13.478;2023-06-14T09:10:12;7.50;;;2.60;;
44120;SDS011;29783;52.504;13.478;2023-06-14T09:12:38;13.05;;;2.53;;
44120;SDS011;29783;52.504;13.478;2023-06-14T09:15:05;10.02;;;2.63;;
44120;SDS011;29783;52.504;13.478;2023-06-14T09:17:37;13.60;;;2.22;;
44120;SDS011;29783;52.504;13.478;2023-06-14T09:20:07;3.50;;;2.20;;
44120;SDS011;29783;52.504;13.478;2023-06-14T09:22:43;6.32;;;2.33;;
44120;SDS011;29783;52.504;13.478;2023-06-14T09:25:09;4.45;;;2.22;;
44120;SDS011;29783;52.504;13.478;2023-06-14T09:27:37;7.30;;;2.17;;
44120;SDS011;29783;52.504;13.478;2023-06-14T09:30:05;10.20;;;2.10;;
44120;SDS011;29783;52.504;13.478;2023-06-14T09:32:36;6.38;;;2.50;;
44120;SDS011;29783;52.504;13.478;2023-06-14T09:35:02;5.53;;;2.33;;
44120;SDS011;29783;52.504;13.478;2023-06-14T09:37:30;8.02;;;2.63;;
44120;SDS011;29783;52.504;13.478;2023-06-14T09:39:57;8.05;;;2.45;;
44120;SDS011;29783;52.504;13.478;2023-06-14T09:42:23;9.32;;;2.55;;
44120;SDS011;29783;52.504;13.478;2023-06-14T09:44:53;6.18;;;2.28;;
44120;SDS011;29783;52.504;13.478;2023-06-14T09:47:21;5.68;;;2.30;;
44120;SDS011;29783;52.504;13.478;2023-06-14T09:49:48;8.45;;;2.38;;
44120;SDS011;29783;52.504;13.478;2023-06-14T09:52:16;4.75;;;2.58;;
44120;SDS011;29783;52.504;13.478;2023-06-14T09:54:44;6.60;;;2.53;;
44120;SDS011;29783;52.504;13.478;2023-06-14T09:57:12;7.05;;;2.72;;
44120;SDS011;29783;52.504;13.478;2023-06-14T09:59:45;8.30;;;2.70;;
44120;SDS011;29783;52.504;13.478;2023-06-14T10:04:50;7.55;;;2.92;;
44120;SDS011;29783;52.504;13.478;2023-06-14T10:07:22;12.18;;;2.65;;
44120;SDS011;29783;52.504;13.478;2023-06-14T10:09:49;6.00;;;2.55;;
44120;SDS011;29783;52.504;13.478;2023-06-14T10:12:17;11.77;;;2.55;;
44120;SDS011;29783;52.504;13.478;2023-06-14T10:14:47;9.65;;;2.53;;
44120;SDS011;29783;52.504;13.478;2023-06-14T10:17:17;5.63;;;2.47;;
44120;SDS011;29783;52.504;13.478;2023-06-14T10:23:03;16.90;;;2.63;;
44120;SDS011;29783;52.504;13.478;2023-06-14T10:25:36;8.45;;;2.28;;
44120;SDS011;29783;52.504;13.478;2023-06-14T10:28:23;5.68;;;2.42;;
44120;SDS011;29783;52.504;13.478;2023-06-14T10:33:32;9.43;;;2.30;;
44120;SDS011;29783;52.504;13.478;2023-06-14T10:39:03;7.65;;;2.83;;
44120;SDS011;29783;52.504;13.478;2023-06-14T10:41:29;14.80;;;2.70;;
44120;SDS011;29783;52.504;13.478;2023-06-14T10:46:39;11.35;;;2.65;;
44120;SDS011;29783;52.504;13.478;2023-06-14T10:49:05;7.10;;;2.67;;
44120;SDS011;29783;52.504;13.478;2023-06-14T10:51:41;7.88;;;2.72;;
44120;SDS011;29783;52.504;13.478;2023-06-14T10:54:14;6.88;;;2.50;;
44120;SDS011;29783;52.504;13.478;2023-06-14T10:56:51;12.55;;;2.60;;
44120;SDS011;29783;52.504;13.478;2023-06-14T10:59:17;7.03;;;2.75;;
44120;SDS011;29783;52.504;13.478;2023-06-14T11:04:22;8.48;;;2.30;;
44120;SDS011;29783;52.504;13.478;2023-06-14T11:07:27;12.35;;;3.03;;
44120;SDS011;29783;52.504;13.478;2023-06-14T11:10:17;13.38;;;2.47;;
44120;SDS011;29783;52.504;13.478;2023-06-14T11:13:03;5.38;;;2.38;;
44120;SDS011;29783;52.504;13.478;2023-06-14T11:15:30;12.98;;;2.70;;
44120;SDS011;29783;52.504;13.478;2023-06-14T11:18:01;9.73;;;2.95;;
44120;SDS011;29783;52.504;13.478;2023-06-14T11:20:29;8.40;;;2.72;;
44120;SDS011;29783;52.504;13.478;2023-06-14T11:22:56;9.82;;;2.60;;
44120;SDS011;29783;52.504;13.478;2023-06-14T11:25:22;6.80;;;2.45;;
44120;SDS011;29783;52.504;13.478;2023-06-14T11:27:51;13.95;;;3.10;;
44120;SDS011;29783;52.504;13.478;2023-06-14T11:30:17;9.40;;;3.38;;
44120;SDS011;29783;52.504;13.478;2023-06-14T11:32:46;8.30;;;2.58;;
44120;SDS011;29783;52.504;13.478;2023-06-14T11:35:13;11.93;;;2.90;;
44120;SDS011;29783;52.504;13.478;2023-06-14T11:37:39;7.65;;;2.63;;
44120;SDS011;29783;52.504;13.478;2023-06-14T11:40:07;8.20;;;2.75;;
44120;SDS011;29783;52.504;13.478;2023-06-14T11:42:34;13.05;;;2.75;;
44120;SDS011;29783;52.504;13.478;2023-06-14T11:45:00;6.80;;;2.55;;
44120;SDS011;29783;52.504;13.478;2023-06-14T11:47:31;9.70;;;2.55;;
44120;SDS011;29783;52.504;13.478;2023-06-14T11:49:58;11.40;;;2.58;;
44120;SDS011;29783;52.504;13.478;2023-06-14T11:52:25;9.18;;;2.50;;
44120;SDS011;29783;52.504;13.478;2023-06-14T11:54:51;7.75;;;2.08;;
44120;SDS011;29783;52.504;13.478;2023-06-14T11:57:17;4.50;;;2.30;;
44120;SDS011;29783;52.504;13.478;2023-06-14T11:59:43;10.20;;;2.72;;
44120;SDS011;29783;52.504;13.478;2023-06-14T12:02:13;11.77;;;2.47;;
44120;SDS011;29783;52.504;13.478;2023-06-14T12:04:42;9.27;;;2.65;;
44120;SDS011;29783;52.504;13.478;2023-06-14T12:07:09;7.88;;;2.45;;
44120;SDS011;29783;52.504;13.478;2023-06-14T12:12:23;5.38;;;2.78;;
44120;SDS011;29783;52.504;13.478;2023-06-14T12:14:53;9.23;;;2.40;;
44120;SDS011;29783;52.504;13.478;2023-06-14T12:17:21;9.27;;;2.70;;
44120;SDS011;29783;52.504;13.478;2023-06-14T12:19:48;5.93;;;2.40;;
44120;SDS011;29783;52.504;13.478;2023-06-14T12:22:14;6.57;;;2.10;;
44120;SDS011;29783;52.504;13.478;2023-06-14T12:24:44;10.45;;;2.20;;
44120;SDS011;29783;52.504;13.478;2023-06-14T12:27:10;6.68;;;2.40;;
44120;SDS011;29783;52.504;13.478;2023-06-14T12:29:40;11.75;;;2.20;;
44120;SDS011;29783;52.504;13.478;2023-06-14T12:32:08;7.75;;;2.30;;
44120;SDS011;29783;52.504;13.478;2023-06-14T12:34:34;5.72;;;1.92;;
44120;SDS011;29783;52.504;13.478;2023-06-14T12:37:00;7.30;;;2.20;;
44120;SDS011;29783;52.504;13.478;2023-06-14T12:39:26;11.93;;;2.40;;
44120;SDS011;29783;52.504;13.478;2023-06-14T12:41:52;5.55;;;1.63;;
44120;SDS011;29783;52.504;13.478;2023-06-14T12:44:19;7.68;;;1.65;;
44120;SDS011;29783;52.504;13.478;2023-06-14T12:46:45;12.60;;;2.05;;
44120;SDS011;29783;52.504;13.478;2023-06-14T12:49:11;4.70;;;1.98;;
44120;SDS011;29783;52.504;13.478;2023-06-14T12:51:37;12.68;;;1.90;;
44120;SDS011;29783;52.504;13.478;2023-06-14T12:54:04;10.00;;;1.75;;
44120;SDS011;29783;52.504;13.478;2023-06-14T12:56:29;19.52;;;1.98;;
44120;SDS011;29783;52.504;13.478;2023-06-14T12:58:55;5.13;;;2.03;;
44120;SDS011;29783;52.504;13.478;2023-06-14T13:01:21;4.30;;;2.00;;
44120;SDS011;29783;52.504;13.478;2023-06-14T13:03:46;16.05;;;1.98;;
44120;SDS011;29783;52.504;13.478;2023-06-14T13:06:13;5.63;;;2.40;;
44120;SDS011;29783;52.504;13.478;2023-06-14T13:08:38;8.38;;;1.98;;
44120;SDS011;29783;52.504;13.478;2023-06-14T13:11:04;10.95;;;2.42;;
44120;SDS011;29783;52.504;13.478;2023-06-14T13:13:30;7.75;;;2.03;;
44120;SDS011;29783;52.504;13.478;2023-06-14T13:15:55;9.60;;;1.90;;
44120;SDS011;29783;52.504;13.478;2023-06-14T13:18:21;8.13;;;2.28;;
44120;SDS011;29783;52.504;13.478;2023-06-14T13:20:47;15.30;;;2.38;;
44120;SDS011;29783;52.504;13.478;2023-06-14T13:23:12;5.72;;;2.10;;
44120;SDS011;29783;52.504;13.478;2023-06-14T13:25:40;5.90;;;2.28;;
44120;SDS011;29783;52.504;13.478;2023-06-14T13:28:06;12.10;;;1.80;;
44120;SDS011;29783;52.504;13.478;2023-06-14T13:30:32;15.75;;;2.22;;
44120;SDS011;29783;52.504;13.478;2023-06-14T13:32:58;5.82;;;2.30;;
44120;SDS011;29783;52.504;13.478;2023-06-14T13:35:24;13.48;;;2.10;;
44120;SDS011;29783;52.504;13.478;2023-06-14T13:37:50;14.02;;;2.30;;
44120;SDS011;29783;52.504;13.478;2023-06-14T13:40:16;6.68;;;2.00;;
44120;SDS011;29783;52.504;13.478;2023-06-14T13:42:42;7.63;;;2.08;;
44120;SDS011;29783;52.504;13.478;2023-06-14T13:45:08;4.13;;;2.15;;
44120;SDS011;29783;52.504;13.478;2023-06-14T13:47:35;12.15;;;1.90;;
44120;SDS011;29783;52.504;13.478;2023-06-14T13:50:00;6.10;;;1.90;;
44120;SDS011;29783;52.504;13.478;2023-06-14T13:52:27;5.88;;;2.22;;
44120;SDS011;29783;52.504;13.478;2023-06-14T13:54:52;7.40;;;2.30;;
44120;SDS011;29783;52.504;13.478;2023-06-14T13:57:18;4.75;;;2.05;;
44120;SDS011;29783;52.504;13.478;2023-06-14T13:59:44;10.95;;;2.40;;
44120;SDS011;29783;52.504;13.478;2023-06-14T14:02:10;7.00;;;1.85;;
44120;SDS011;29783;52.504;13.478;2023-06-14T14:04:37;5.45;;;2.22;;
44120;SDS011;29783;52.504;13.478;2023-06-14T14:07:03;15.98;;;2.30;;
44120;SDS011;29783;52.504;13.478;2023-06-14T14:09:30;12.07;;;2.10;;
44120;SDS011;29783;52.504;13.478;2023-06-14T14:11:59;6.60;;;2.17;;
44120;SDS011;29783;52.504;13.478;2023-06-14T14:14:25;8.63;;;2.38;;
44120;SDS011;29783;52.504;13.478;2023-06-14T14:16:52;11.38;;;2.50;;
44120;SDS011;29783;52.504;13.478;2023-06-14T14:19:19;9.77;;;2.42;;
44120;SDS011;29783;52.504;13.478;2023-06-14T14:21:46;8.23;;;2.50;;
44120;SDS011;29783;52.504;13.478;2023-06-14T14:24:12;17.00;;;2.65;;
44120;SDS011;29783;52.504;13.478;2023-06-14T14:26:38;10.40;;;2.30;;
44120;SDS011;29783;52.504;13.478;2023-06-14T14:29:04;7.00;;;2.30;;
44120;SDS011;29783;52.504;13.478;2023-06-14T14:31:30;11.50;;;2.10;;
44120;SDS011;29783;52.504;13.478;2023-06-14T14:33:55;12.95;;;1.95;;
44120;SDS011;29783;52.504;13.478;2023-06-14T14:36:21;10.40;;;2.60;;
44120;SDS011;29783;52.504;13.478;2023-06-14T14:38:47;8.85;;;2.30;;
44120;SDS011;29783;52.504;13.478;2023-06-14T14:41:13;8.10;;;2.00;;
44120;SDS011;29783;52.504;13.478;2023-06-14T14:43:39;6.75;;;2.05;;
44120;SDS011;29783;52.504;13.478;2023-06-14T14:46:04;6.35;;;2.03;;
44120;SDS011;29783;52.504;13.478;2023-06-14T14:48:30;9.60;;;2.10;;
44120;SDS011;29783;52.504;13.478;2023-06-14T14:50:56;8.60;;;2.03;;
44120;SDS011;29783;52.504;13.478;2023-06-14T14:53:22;7.30;;;2.10;;
44120;SDS011;29783;52.504;13.478;2023-06-14T14:55:48;11.55;;;2.30;;